Latest Weather Observations for Naracoorte

IDS60801

Issued at 9:35 pm CST Monday 28 July 2014 (issued every 30 minutes, with the page automatically refreshed every 10 minutes)

About weather observations | Map of weather stations | Latest weather observations for SA | Other Formats
Station Details ID: 026099 Name: NARACOORTE AERODROME Lat: -36.98 Lon: 140.73 Height: 49.72 m
Data from the previous 72 hours. | See also: Recent months at Naracoorte
Date/Time
CST
Temp
°C
App
Temp
°C
Dew
Point
Rel
Hum
%
Delta-T
°C
Wind Press
QNH
hPa
Press
MSL
hPa
Rain
since 9 am
mm
Dir
 
Spd
km/h
Gust
km/h
Spd
kts
Gust
kts
28/09:30pm 11.3 6.7 9.6 89 0.9 NNW 24 32 13 17 1013.2 1013.3 0.0
28/09:00pm 10.9 6.1 9.0 88 0.9 NNW 24 32 13 17 1013.3 1013.4 0.0
28/08:30pm 10.8 6.3 8.6 86 1.1 NNW 22 32 12 17 1013.3 1013.4 0.0
28/08:00pm 10.8 6.6 8.4 85 1.2 NNW 20 30 11 16 1013.4 - 0.0
28/07:30pm 11.0 6.0 8.2 83 1.4 NNW 24 32 13 17 1013.2 1013.3 0.0
28/07:00pm 11.1 6.9 8.3 83 1.4 NNW 20 30 11 16 1013.1 - 0.0
28/06:30pm 11.4 7.9 8.8 84 1.3 NNW 17 22 9 12 1013.1 1013.2 0.0
28/06:00pm 11.8 8.3 8.6 81 1.6 NNW 17 22 9 12 1013.1 1013.2 0.0
28/05:30pm 12.8 8.4 9.1 78 1.9 NNW 22 28 12 15 1013.3 1013.4 0.0
28/05:00pm 13.7 8.7 9.4 75 2.2 NNW 26 35 14 19 1012.8 - 0.0
28/04:30pm 14.6 10.0 9.8 73 2.5 NNW 24 32 13 17 1012.6 1012.7 0.0
28/04:00pm 15.3 9.6 9.9 70 2.8 NW 30 39 16 21 1012.6 - 0.0
28/03:30pm 15.7 10.1 10.0 69 3.0 NW 30 43 16 23 1012.7 1012.8 0.0
28/03:00pm 15.9 10.3 10.2 69 3.0 NW 30 41 16 22 1012.9 1013.0 0.0
28/02:30pm 16.1 9.5 10.0 67 3.2 WNW 35 44 19 24 1013.3 1013.4 0.0
28/02:00pm 15.7 8.6 9.6 67 3.2 WNW 37 44 20 24 1013.4 - 0.0
28/01:30pm 16.1 9.1 10.0 67 3.2 WNW 37 46 20 25 1013.8 1013.9 0.0
28/01:00pm 16.0 9.1 8.7 62 3.7 WNW 35 46 19 25 1014.1 - 0.0
28/12:30pm 16.3 10.6 11.0 71 2.8 WNW 32 44 17 24 1014.3 1014.4 0.0
28/12:00pm 15.8 10.2 10.1 69 3.0 NW 30 41 16 22 1014.7 1014.8 0.0
28/11:30am 15.6 10.4 11.6 77 2.2 NW 30 43 16 23 1015.3 1015.4 0.0
28/11:00am 14.7 10.8 12.0 84 1.5 NW 24 35 13 19 1015.7 - 0.0
28/10:30am 14.1 8.9 11.6 85 1.3 NW 30 37 16 20 1015.9 1016.0 0.0
28/10:00am 13.7 8.8 11.4 86 1.2 NW 28 37 15 20 1015.8 - 0.0
28/09:30am 12.5 7.7 10.2 86 1.2 NNW 26 32 14 17 1015.9 1016.0 0.0
28/09:00am 11.7 7.4 9.4 86 1.2 NNW 22 32 12 17 1015.7 1015.8 0.2
28/08:30am 10.3 5.7 8.2 87 1.0 NNW 22 32 12 17 1015.5 1015.6 0.2
28/08:00am 9.0 5.1 7.0 87 0.9 NNW 17 20 9 11 1015.6 - 0.2
28/07:30am 8.5 4.4 6.3 86 1.0 N 17 22 9 12 1015.7 1015.8 0.2
28/07:00am 8.0 3.9 6.0 87 0.9 N 17 24 9 13 1015.6 - 0.2
28/06:30am 8.3 3.8 5.9 85 1.1 NNW 19 24 10 13 1015.6 1015.7 0.2
28/06:00am 8.2 4.0 5.8 85 1.1 NNW 17 22 9 12 1015.5 1015.6 0.2
28/05:30am 8.4 3.8 5.7 83 1.2 NNW 19 24 10 13 1015.4 1015.5 0.2
28/05:00am 8.6 4.1 5.9 83 1.2 NNW 19 22 10 12 1015.4 - 0.2
28/04:30am 8.4 4.2 5.9 84 1.1 NNW 17 20 9 11 1015.6 1015.7 0.2
28/04:00am 8.3 4.1 5.8 84 1.1 NNW 17 20 9 11 1015.7 - 0.2
28/03:30am 7.8 3.5 5.4 85 1.1 NNW 17 20 9 11 1015.7 1015.8 0.2
28/03:00am 8.1 3.8 5.4 83 1.2 NNW 17 22 9 12 1015.8 1015.9 0.2
28/02:30am 9.0 4.2 5.7 80 1.5 NNW 20 24 11 13 1015.8 1015.9 0.2
28/02:00am 9.2 5.0 5.8 79 1.6 N 17 20 9 11 1016.1 - 0.2
28/01:30am 9.2 5.8 6.1 81 1.4 N 13 19 7 10 1016.2 1016.3 0.2
28/01:00am 8.7 5.6 5.6 81 1.4 N 11 13 6 7 1016.5 - 0.2
28/12:30am 9.3 6.3 6.0 80 1.5 N 11 15 6 8 1016.5 1016.6 0.2
28/12:00am 10.4 6.7 6.4 76 1.9 N 15 20 8 11 1016.7 1016.8 0.2
 
Date/Time
CST
Temp
°C
App
Temp
°C
Dew
Point
Rel
Hum
%
Delta-T
°C
Wind Press
QNH
hPa
Press
MSL
hPa
Rain
since 9 am
mm
Dir
 
Spd
km/h
Gust
km/h
Spd
kts
Gust
kts
27/11:30pm 11.2 7.2 6.5 73 2.2 N 17 20 9 11 1017.1 1017.1 0.2
27/11:00pm 11.1 7.1 6.6 74 2.1 N 17 20 9 11 1017.3 - 0.2
27/10:30pm 11.6 7.3 7.1 74 2.2 N 19 24 10 13 1017.6 1017.6 0.2
27/10:00pm 11.8 7.9 7.3 74 2.2 N 17 22 9 12 1017.8 - 0.2
27/09:30pm 11.7 7.5 7.4 75 2.1 N 19 24 10 13 1017.9 1017.9 0.2
27/09:00pm 11.6 7.8 7.5 76 2.0 N 17 24 9 13 1018.2 1018.2 0.2
27/08:30pm 11.9 7.5 7.6 75 2.1 N 20 26 11 14 1018.2 1018.2 0.2
27/08:00pm 12.2 7.4 7.5 73 2.3 N 22 32 12 17 1018.0 - 0.2
27/07:30pm 12.6 7.9 7.7 72 2.4 N 22 30 12 16 1018.2 1018.2 0.2
27/07:00pm 12.7 8.6 8.0 73 2.3 N 19 28 10 15 1018.5 - 0.2
27/06:30pm 13.0 8.9 7.7 70 2.6 N 19 26 10 14 1018.6 1018.6 0.2
27/06:00pm 13.3 9.2 8.0 70 2.6 N 19 26 10 14 1018.8 1018.8 0.2
27/05:30pm 13.0 9.4 8.3 73 2.3 N 17 22 9 12 1018.6 1018.6 0.2
27/05:00pm 12.9 9.8 8.8 76 2.1 N 15 20 8 11 1018.5 - 0.2
27/04:30pm 13.4 10.0 9.1 75 2.2 NNW 17 22 9 12 1018.7 1018.7 0.2
27/04:00pm 14.1 9.6 8.7 70 2.7 NNW 22 30 12 16 1018.5 - 0.2
27/03:30pm 14.9 10.6 9.3 69 2.9 NNW 22 30 12 16 1018.6 1018.6 0.2
27/03:00pm 15.1 10.7 8.8 66 3.2 NNW 22 35 12 19 1018.6 1018.6 0.2
27/02:30pm 15.1 9.0 8.1 63 3.5 NNW 30 43 16 23 1018.7 1018.7 0.2
27/02:10pm 15.0 9.4 8.7 66 3.2 NNW 28 46 15 25 1018.7 - 0.2
27/02:00pm 15.2 10.0 8.7 65 3.3 NNW 26 41 14 22 1019.0 - 0.2
27/01:30pm 15.3 8.8 8.3 63 3.5 NNW 32 46 17 25 1018.7 1018.7 0.2
27/01:00pm 15.1 9.1 8.8 66 3.2 NNW 30 44 16 24 1020.0 - 0.2
27/12:30pm 15.5 10.2 9.8 69 3.0 NNW 28 39 15 21 1020.3 1020.4 0.2
27/12:00pm 14.1 9.8 9.3 73 2.4 NNW 22 32 12 17 1021.0 1021.1 0.2
27/11:30am 14.1 9.8 9.3 73 2.4 N 22 30 12 16 1021.5 1021.6 0.2
27/11:00am 12.9 8.0 8.4 74 2.2 N 24 37 13 20 1021.9 - 0.2
27/10:30am 12.0 6.7 8.5 79 1.7 N 26 37 14 20 1022.3 1022.4 0.2
27/10:00am 11.6 5.4 7.9 78 1.8 N 30 39 16 21 1022.8 - 0.2
27/09:30am 10.7 5.6 7.8 82 1.4 N 24 32 13 17 1022.9 1023.0 0.2
27/09:00am 9.9 4.7 7.2 83 1.3 N 24 33 13 18 1023.1 1023.2 0.2
27/08:30am 9.4 4.5 6.8 84 1.2 N 22 32 12 17 1023.2 1023.3 0.2
27/08:00am 8.8 3.9 6.8 87 0.9 N 22 32 12 17 1023.5 - 0.2
27/07:30am 8.0 3.5 6.3 89 0.8 N 19 24 10 13 1023.8 1023.9 0.2
27/07:00am 7.8 3.4 6.4 91 0.6 N 19 24 10 13 1023.9 - 0.2
27/06:30am 7.7 3.7 6.8 94 0.4 N 17 22 9 12 1023.9 1024.0 0.2
27/06:00am 6.4 3.0 6.0 97 0.2 N 13 17 7 9 1023.8 1023.9 0.2
27/05:30am 6.2 2.0 5.8 97 0.2 NNE 17 19 9 10 1023.8 1023.9 0.2
27/05:00am 6.2 2.4 5.8 97 0.2 N 15 20 8 11 1023.9 - 0.2
27/04:30am 6.5 2.4 6.1 97 0.2 N 17 20 9 11 1023.9 1024.0 0.2
27/04:00am 6.3 2.9 5.9 97 0.2 NNE 13 17 7 9 1024.1 - 0.2
27/03:30am 6.5 2.8 6.1 97 0.2 NNE 15 17 8 9 1024.3 1024.4 0.2
27/03:00am 6.6 3.3 6.2 97 0.2 NNE 13 15 7 8 1024.5 1024.6 0.2
27/02:30am 6.8 3.5 6.4 97 0.2 NNE 13 17 7 9 1024.5 1024.6 0.2
27/02:00am 6.7 3.4 6.3 97 0.2 N 13 15 7 8 1024.5 - 0.0
27/01:30am 7.0 3.7 6.6 97 0.2 NNE 13 15 7 8 1024.6 1024.7 0.0
27/01:00am 7.3 3.7 6.9 97 0.2 NNE 15 17 8 9 1024.6 - 0.0
27/12:30am 7.5 4.0 7.1 97 0.2 NNE 15 17 8 9 1024.9 1025.0 0.0
27/12:00am 7.7 4.6 7.3 97 0.2 NNE 13 15 7 8 1025.2 1025.3 0.0
 
Date/Time
CST
Temp
°C
App
Temp
°C
Dew
Point
Rel
Hum
%
Delta-T
°C
Wind Press
QNH
hPa
Press
MSL
hPa
Rain
since 9 am
mm
Dir
 
Spd
km/h
Gust
km/h
Spd
kts
Gust
kts
26/11:30pm 7.6 5.2 7.2 97 0.2 N 9 11 5 6 1025.6 1025.7 0.0
26/11:00pm 8.1 5.5 7.7 97 0.2 NNE 11 13 6 7 1025.6 - 0.0
26/10:30pm 8.2 5.9 7.6 96 0.3 N 9 11 5 6 1025.8 1025.9 0.0
26/10:00pm 8.8 6.3 8.2 96 0.3 N 11 13 6 7 1026.0 - 0.0
26/09:30pm 8.9 6.8 8.3 96 0.3 N 9 11 5 6 1026.2 1026.3 0.0
26/09:00pm 9.0 6.2 8.4 96 0.3 N 13 17 7 9 1026.2 1026.3 0.0
26/08:30pm 9.3 6.8 8.4 94 0.4 NNW 11 13 6 7 1026.3 1026.4 0.0
26/08:00pm 9.9 7.6 9.0 94 0.4 NNW 11 15 6 8 1026.3 - 0.0
26/07:30pm 10.1 7.4 9.0 93 0.5 NNW 13 15 7 8 1026.2 1026.3 0.0
26/07:00pm 10.5 8.3 9.3 92 0.6 N 11 13 6 7 1026.0 - 0.0
26/06:30pm 11.3 8.9 9.9 91 0.7 NW 13 17 7 9 1026.0 1026.1 0.0
26/06:00pm 10.6 7.9 8.9 89 0.8 NW 13 15 7 8 1025.7 1025.8 0.0
26/05:30pm 10.4 7.2 8.5 88 0.9 WNW 15 17 8 9 1025.3 1025.4 0.0
26/05:00pm 11.9 9.3 9.3 84 1.3 WNW 13 15 7 8 1025.3 - 0.0
26/04:30pm 14.1 11.7 9.9 76 2.2 W 13 17 7 9 1025.1 1025.2 0.0
26/04:00pm 14.5 11.9 10.7 78 2.0 W 15 19 8 10 1024.9 - 0.0
26/03:30pm 14.5 11.8 10.5 77 2.1 WNW 15 19 8 10 1024.7 1024.8 0.0
26/03:00pm 15.7 11.9 9.8 68 3.1 W 20 28 11 15 1024.7 1024.8 0.0
26/02:30pm 15.8 13.2 10.8 72 2.7 W 15 19 8 10 1024.5 1024.6 0.0
26/02:00pm 15.6 12.9 10.4 71 2.7 WSW 15 19 8 10 1024.4 - 0.0
26/01:30pm 15.5 13.0 9.6 68 3.0 NW 13 17 7 9 1024.4 1024.5 0.0
26/01:00pm 16.5 15.1 12.1 75 2.4 WSW 11 17 6 9 1024.9 - 0.0
26/12:30pm 15.3 12.4 10.9 75 2.3 W 17 22 9 12 1025.3 1025.4 0.0
26/12:00pm 15.2 11.6 10.0 71 2.7 W 19 24 10 13 1025.5 1025.6 0.0
26/11:30am 14.7 11.0 9.5 71 2.7 W 19 24 10 13 1025.8 1025.9 0.0
26/11:00am 14.6 12.2 10.0 74 2.4 W 13 19 7 10 1026.0 - 0.0
26/10:30am 13.4 10.4 9.3 76 2.1 W 15 19 8 10 1026.1 1026.2 0.0
26/10:00am 12.6 10.3 10.5 87 1.1 W 13 19 7 10 1026.3 - 0.0
26/09:30am 10.9 9.2 9.8 93 0.6 W 9 11 5 6 1026.0 1026.1 0.0
26/09:00am 9.4 7.9 9.1 98 0.1 W 7 9 4 5 1025.8 1025.9 1.0
26/08:30am 8.0 6.7 7.7 98 0.1 NW 4 7 2 4 1025.5 1025.6 1.0
26/08:00am 6.8 4.7 6.7 99 0.0 NW 7 9 4 5 1025.2 - 1.0
26/07:30am 5.7 3.0 5.6 99 0.0 NNW 9 11 5 6 1025.0 1025.1 1.0
26/07:00am 5.2 2.4 5.1 99 0.0 NNW 9 11 5 6 1024.7 - 1.0
26/06:30am 5.6 2.8 5.3 98 0.1 NNW 9 11 5 6 1024.3 1024.4 1.0
26/06:00am 6.4 4.2 6.1 98 0.1 NNW 7 11 4 6 1024.1 1024.2 0.8
26/05:30am 6.6 4.0 6.3 98 0.1 NNW 9 13 5 7 1023.7 1023.8 0.8
26/05:00am 7.1 4.3 6.8 98 0.1 NNW 11 13 6 7 1023.4 - 0.8
26/04:30am 7.8 5.1 7.5 98 0.1 NNW 11 15 6 8 1023.3 1023.4 0.8
26/04:00am 9.0 7.0 8.7 98 0.1 NNW 9 11 5 6 1023.0 - 0.8
26/03:30am 9.1 6.7 8.8 98 0.1 NNW 11 13 6 7 1022.8 1022.9 0.8
26/03:00am 8.7 6.2 8.4 98 0.1 NNW 11 15 6 8 1022.7 1022.8 0.8
26/02:30am 9.0 6.2 8.7 98 0.1 NNW 13 15 7 8 1022.6 1022.7 0.8
26/02:00am 8.5 6.0 8.2 98 0.1 NNW 11 13 6 7 1022.5 - 0.8
26/01:30am 8.3 6.1 8.0 98 0.1 NNW 9 13 5 7 1022.3 1022.4 0.8
26/01:00am 7.9 5.3 7.6 98 0.1 N 11 15 6 8 1021.9 - 0.8
26/12:30am 7.8 5.5 7.5 98 0.1 NNW 9 13 5 7 1021.9 1022.0 0.8
26/12:00am 7.7 5.7 7.3 97 0.2 N 7 11 4 6 1021.8 1021.9 0.8
 
Date/Time
CST
Temp
°C
App
Temp
°C
Dew
Point
Rel
Hum
%
Delta-T
°C
Wind Press
QNH
hPa
Press
MSL
hPa
Rain
since 9 am
mm
Dir
 
Spd
km/h
Gust
km/h
Spd
kts
Gust
kts
25/11:30pm 8.1 5.9 7.7 97 0.2 NNW 9 9 5 5 1021.8 1021.9 0.8
25/11:00pm 8.5 6.7 8.1 97 0.2 N 7 9 4 5 1021.7 - 0.8
25/10:30pm 8.2 6.0 7.8 97 0.2 NNW 9 13 5 7 1021.6 1021.7 0.8
25/10:00pm 8.9 6.9 8.5 97 0.2 NNW 9 11 5 6 1021.5 - 0.8

Other Formats:

Comma delimited format used in spreadsheet applications
http://www.bom.gov.au/fwo/IDS60801/IDS60801.94820.axf

JavaScript Object Notation format (JSON) in row-major order
http://www.bom.gov.au/fwo/IDS60801/IDS60801.94820.json